Aérodrome :
LOGIN :

S'inscrire | Disclaimer

   EN    FR    IT 

 










Légende :    VFR   VFR Marginal   IFR   IFR Intensif   IFR Très Intensif
Visi : 
Plafond : 
>= 8 km
>= 3000ft
5 à 8 km
1000 à 3000 ft
1500m à 5 km
500 à 1000 ft
800 à 1500m
200 à 500 ft
< 800m
< 200 ft
Symboles :   Orages  Brouillard  Fortes neiges  Fortes précipitations  Vent > 20 kt
SIGMETs :   Divers  Orages  Givrage  Turbulence  Onde Orograph.  Cendres Volcan.







- Altitude de l'aérodrome : 286 ft
- Code IATA : TRF


ENTO - Sandefjord , Torp

DERNIER METAR :
  • 250020Z AUTO 01006KT 6000 BKN003/// OVC006/// 13/13 Q1033

METARs EXPIRÉS :
  • 242350Z AUTO 01005KT 6000 BKN004/// OVC007/// 13/13 Q1034
  • 242320Z AUTO 01006KT 7000 FEW004/// BKN007/// OVC033/// 13/13 Q1034
  • 242250Z AUTO 02007KT 7000 FEW004/// OVC006/// 13/13 Q1034
  • 242220Z AUTO 01006KT 8000 SCT005/// OVC007/// 13/13 Q1034
  • 242150Z AUTO 01006KT 9000 BKN004/// OVC007/// 13/13 Q1034

TAF TAF ENTO
Valide du 25 à 00h jusqu'au 26 à 00h UTC


2500/2524 05008KT 9999 SCT008 BKN020
TEMPO 2500/2509 2000 -DZ BR OVC004
Pas de NOTAMs connus pour ce terrain.



MET'MAP, la Météo Aéronautique d'un coup d'oeil ! - Copyright ORBIFLY Décembre 2007 - Disclaimer

ORBIFLY MET'MAP TEAM :

Programmation & Développement : Alexandra Zaïnal
Conception & Développement : Baudouin d'Aumeries
Co-Programmation & Développement : Marc-Olivier Méhu
Soutien technique & logistique : Manuel Goepfert

Contact : metmap@orbifly.com




SOURCES & CREDITS :

   NOAA